createdAt,value
2022-12-15T00:03:09.155Z,51.13
2022-12-15T00:08:31.090Z,39.55
2022-12-15T00:13:51.786Z,42.10
2022-12-15T00:19:12.304Z,35.28
2022-12-15T00:24:34.036Z,45.83
2022-12-15T00:29:54.328Z,44.92
2022-12-15T00:35:14.599Z,50.20
2022-12-15T00:40:18.799Z,47.63
2022-12-15T00:45:41.650Z,44.25
2022-12-15T00:50:54.386Z,38.85
2022-12-15T00:56:16.009Z,42.00
2022-12-15T01:01:37.248Z,49.00
2022-12-15T01:06:57.702Z,43.05
2022-12-15T01:12:19.424Z,44.67
2022-12-15T01:17:40.321Z,44.85
2022-12-15T01:22:43.424Z,53.80
2022-12-15T01:27:47.648Z,38.88
2022-12-15T01:32:50.501Z,47.75
2022-12-15T01:37:53.262Z,49.83
2022-12-15T01:42:57.417Z,45.35
2022-12-15T01:48:05.581Z,57.70
2022-12-15T01:53:09.222Z,53.10
2022-12-15T01:58:15.933Z,41.40
2022-12-15T02:08:22.017Z,55.08
2022-12-15T02:13:36.249Z,39.67
2022-12-15T02:18:47.883Z,45.28
2022-12-15T02:24:20.617Z,44.95
2022-12-15T02:29:41.709Z,44.90
2022-12-15T02:34:50.996Z,41.38
2022-12-15T02:39:53.890Z,48.63
2022-12-15T02:45:01.470Z,46.55
2022-12-15T02:50:26.584Z,48.35
2022-12-15T02:55:38.908Z,39.33
2022-12-15T03:00:46.635Z,44.00
2022-12-15T03:05:53.231Z,45.20
2022-12-15T03:10:57.810Z,42.88
2022-12-15T03:16:01.296Z,42.92
2022-12-15T03:21:05.957Z,40.03
2022-12-15T03:26:08.836Z,43.80
2022-12-15T03:31:11.616Z,39.70
2022-12-15T03:36:15.668Z,51.72
2022-12-15T03:41:19.323Z,44.97
2022-12-15T03:46:22.121Z,40.90
2022-12-15T03:51:26.527Z,43.60
2022-12-15T03:56:29.330Z,41.22
2022-12-15T04:01:34.094Z,47.65
2022-12-15T04:06:38.307Z,41.30
2022-12-15T04:11:41.007Z,45.55
2022-12-15T04:16:43.893Z,46.15
2022-12-15T04:21:48.078Z,37.40
2022-12-15T04:27:08.685Z,41.85
2022-12-15T04:32:29.079Z,42.05
2022-12-15T04:37:50.880Z,42.90
2022-12-15T04:43:11.426Z,45.97
2022-12-15T04:48:32.203Z,43.55
2022-12-15T04:53:54.035Z,48.80
2022-12-15T04:59:14.459Z,46.78
2022-12-15T05:04:34.771Z,47.13
2022-12-15T05:10:02.575Z,37.05
2022-12-15T05:15:24.370Z,43.03
2022-12-15T05:20:44.573Z,38.97
2022-12-15T05:26:06.692Z,45.10
2022-12-15T05:31:27.485Z,40.72
2022-12-15T05:36:30.527Z,48.78
2022-12-15T05:41:34.834Z,47.25
2022-12-15T05:46:38.434Z,45.08
2022-12-15T05:51:43.702Z,43.67
2022-12-15T05:56:50.141Z,45.63
2022-12-15T06:01:53.933Z,46.38
2022-12-15T06:06:56.841Z,39.30
2022-12-15T06:12:00.928Z,39.58
2022-12-15T06:17:03.695Z,42.28
2022-12-15T06:22:07.352Z,40.65
2022-12-15T06:27:11.449Z,47.78
2022-12-15T06:32:14.244Z,41.35
2022-12-15T06:37:16.967Z,43.90
2022-12-15T06:42:24.039Z,44.92
2022-12-15T06:47:27.082Z,38.90
2022-12-15T06:52:30.730Z,42.33
2022-12-15T06:57:34.987Z,39.65
2022-12-15T07:02:38.014Z,48.90
2022-12-15T07:07:40.985Z,50.70
2022-12-15T07:12:45.186Z,44.35
2022-12-15T07:17:48.048Z,45.58
2022-12-15T07:22:51.576Z,58.85
2022-12-15T07:27:56.116Z,48.10
2022-12-15T07:32:58.981Z,45.15
2022-12-15T07:38:01.747Z,56.58
2022-12-15T07:43:05.902Z,49.10
2022-12-15T07:48:08.689Z,47.45
2022-12-15T07:53:11.532Z,33.78
2022-12-15T07:58:15.716Z,43.85
2022-12-15T08:03:18.775Z,53.92
2022-12-15T08:08:22.608Z,44.42
2022-12-15T08:14:00.791Z,37.33
2022-12-15T08:18:50.044Z,45.70
2022-12-15T08:23:52.836Z,41.13
2022-12-15T08:29:11.788Z,39.38
2022-12-15T08:34:24.581Z,46.45
2022-12-15T08:39:27.983Z,42.80
2022-12-15T08:44:32.226Z,47.08
2022-12-15T08:49:35.392Z,46.33
2022-12-15T08:54:39.079Z,44.63
2022-12-15T08:59:43.447Z,54.03
2022-12-15T09:04:46.545Z,46.28
2022-12-15T09:09:49.439Z,43.03
2022-12-15T09:14:59.833Z,40.28
2022-12-15T09:20:04.454Z,44.67
2022-12-15T09:25:11.406Z,43.47
2022-12-15T09:30:17.397Z,45.95
2022-12-15T09:35:20.831Z,49.35
2022-12-15T09:40:24.322Z,51.28
2022-12-15T09:45:39.949Z,65.45
2022-12-15T09:50:46.442Z,54.85
2022-12-15T09:56:02.474Z,63.60
2022-12-15T10:01:15.480Z,61.47
2022-12-15T10:06:22.051Z,58.20
2022-12-15T10:11:40.488Z,67.63
2022-12-15T10:16:55.480Z,82.22
2022-12-15T10:21:59.455Z,68.72
2022-12-15T10:27:13.492Z,60.08
2022-12-15T10:32:21.441Z,64.30
2022-12-15T10:37:25.365Z,70.35
2022-12-15T10:42:29.908Z,64.57
2022-12-15T10:47:34.538Z,58.50
2022-12-15T10:52:39.153Z,67.70
2022-12-15T10:57:59.449Z,58.47
2022-12-15T11:03:22.368Z,69.47
2022-12-15T11:08:33.679Z,76.57
2022-12-15T11:13:37.787Z,72.18
2022-12-15T11:18:46.557Z,69.78
2022-12-15T11:23:58.820Z,73.13
2022-12-15T11:29:08.450Z,77.43
2022-12-15T11:34:20.725Z,74.50
2022-12-15T11:39:37.990Z,70.63
2022-12-15T11:44:56.548Z,71.18
2022-12-15T11:50:15.565Z,74.05
2022-12-15T11:55:30.253Z,72.25
2022-12-15T12:00:46.534Z,107.97
2022-12-15T12:06:25.687Z,66.65
2022-12-15T12:11:39.558Z,63.28
2022-12-15T12:16:47.882Z,58.78
2022-12-15T12:21:59.814Z,57.17
2022-12-15T12:27:06.575Z,57.00
2022-12-15T12:32:19.661Z,57.67
2022-12-15T12:37:28.858Z,58.42
2022-12-15T12:42:38.629Z,56.30
2022-12-15T12:47:45.421Z,54.33
2022-12-15T12:52:52.765Z,51.10
2022-12-15T12:57:56.789Z,69.88
2022-12-15T13:03:18.578Z,62.00
2022-12-15T13:13:59.580Z,66.43
2022-12-15T13:19:06.696Z,53.83
2022-12-15T13:24:24.241Z,65.07
2022-12-15T13:29:29.697Z,59.85
2022-12-15T13:34:40.326Z,60.33
2022-12-15T13:40:01.866Z,48.25
2022-12-15T13:45:25.390Z,52.85
2022-12-15T13:50:37.607Z,74.05
2022-12-15T13:55:51.050Z,55.00
2022-12-15T14:00:59.116Z,61.10
2022-12-15T14:06:02.573Z,65.30
2022-12-15T14:16:34.105Z,76.28
2022-12-15T14:21:37.195Z,64.93
2022-12-15T14:26:45.279Z,66.07
2022-12-15T14:31:55.713Z,61.42
2022-12-15T14:37:02.302Z,66.88
2022-12-15T14:42:08.591Z,66.70
2022-12-15T14:47:21.401Z,59.67
2022-12-15T14:52:29.275Z,59.00
2022-12-15T14:57:42.456Z,62.58
2022-12-15T15:02:46.737Z,65.47
2022-12-15T15:07:56.231Z,79.25
2022-12-15T15:13:00.313Z,66.38
2022-12-15T15:18:05.460Z,73.82
2022-12-15T15:23:17.667Z,75.88
2022-12-15T15:28:26.618Z,72.15
2022-12-15T15:33:30.680Z,68.47
2022-12-15T15:38:36.039Z,94.70
2022-12-15T15:43:40.095Z,84.45
2022-12-15T15:48:47.581Z,73.75
2022-12-15T15:53:50.553Z,77.22
2022-12-15T15:58:53.425Z,74.05
2022-12-15T16:03:57.567Z,78.75
2022-12-15T16:09:03.448Z,74.15
2022-12-15T16:14:12.815Z,78.47
2022-12-15T16:19:17.110Z,85.55
2022-12-15T16:24:20.425Z,86.00
2022-12-15T16:29:23.213Z,84.97
2022-12-15T16:34:27.442Z,75.93
2022-12-15T16:39:34.085Z,77.68
2022-12-15T16:49:41.569Z,84.45
2022-12-15T16:54:48.892Z,83.28
2022-12-15T16:59:51.806Z,90.65
2022-12-15T17:04:56.046Z,86.32
2022-12-15T17:09:59.122Z,90.95
2022-12-15T17:15:02.843Z,89.47
2022-12-15T17:26:18.114Z,90.30
2022-12-15T17:31:01.454Z,85.50
2022-12-15T17:36:13.161Z,89.25
2022-12-15T17:41:35.433Z,86.95
2022-12-15T17:46:38.951Z,90.80
2022-12-15T17:51:44.389Z,96.32
2022-12-15T17:56:49.166Z,103.63
2022-12-15T18:01:52.778Z,153.10
2022-12-15T18:07:01.693Z,135.52
2022-12-15T18:12:11.162Z,98.97
2022-12-15T18:17:14.017Z,139.50
2022-12-15T18:22:22.251Z,114.75
2022-12-15T18:27:28.884Z,146.95
2022-12-15T18:32:32.489Z,181.15
2022-12-15T18:37:36.757Z,359.48
2022-12-15T18:42:40.280Z,193.18
2022-12-15T18:47:43.094Z,205.82
2022-12-15T18:52:49.015Z,133.23
2022-12-15T18:57:52.920Z,204.80
2022-12-15T19:03:00.101Z,163.57
2022-12-15T19:08:10.020Z,123.50
2022-12-15T19:13:15.395Z,273.65
2022-12-15T19:18:37.254Z,135.95
2022-12-15T19:23:41.754Z,255.50
2022-12-15T19:28:44.476Z,183.18
2022-12-15T19:33:47.367Z,128.25
2022-12-15T19:38:55.393Z,357.25
2022-12-15T19:43:58.444Z,287.73
2022-12-15T19:49:01.275Z,231.32
2022-12-15T19:54:06.755Z,251.73
2022-12-15T19:59:19.765Z,149.45
2022-12-15T20:04:24.540Z,245.52
2022-12-15T20:09:28.777Z,197.23
2022-12-15T20:14:31.670Z,195.82
2022-12-15T20:19:34.828Z,253.27
2022-12-15T20:24:39.821Z,201.70
2022-12-15T20:29:42.666Z,255.02
2022-12-15T20:34:46.216Z,161.85
2022-12-15T20:39:57.015Z,245.73
2022-12-15T20:45:00.378Z,199.18
2022-12-15T20:50:03.482Z,268.42
2022-12-15T20:55:15.538Z,304.55
2022-12-15T21:00:19.073Z,277.92
2022-12-15T21:05:23.721Z,259.10
2022-12-15T21:10:29.146Z,124.57
2022-12-15T21:15:32.363Z,185.27
2022-12-15T21:20:35.243Z,183.70
2022-12-15T21:25:39.400Z,156.02
2022-12-15T21:30:42.414Z,145.65
2022-12-15T21:35:47.648Z,184.75
2022-12-15T21:40:57.665Z,163.40
2022-12-15T21:46:03.676Z,171.88
2022-12-15T21:51:06.630Z,97.97
2022-12-15T21:56:15.462Z,97.47
2022-12-15T22:01:22.116Z,117.00
2022-12-15T22:06:27.085Z,133.85
2022-12-15T22:11:32.807Z,110.22
2022-12-15T22:16:35.572Z,106.13
2022-12-15T22:21:38.348Z,103.90
2022-12-15T22:26:43.258Z,121.28
2022-12-15T22:31:46.125Z,114.03
2022-12-15T22:36:49.479Z,108.68
2022-12-15T22:41:54.662Z,121.95
2022-12-15T22:47:00.766Z,114.38
2022-12-15T22:52:04.139Z,106.90
2022-12-15T22:57:18.287Z,113.25
2022-12-15T23:02:21.179Z,85.05
2022-12-15T23:07:24.069Z,100.93
2022-12-15T23:12:28.582Z,90.32
2022-12-15T23:17:31.330Z,85.53
2022-12-15T23:22:34.094Z,92.22
2022-12-15T23:27:38.194Z,86.90
2022-12-15T23:32:40.913Z,86.78
2022-12-15T23:37:43.702Z,104.55
2022-12-15T23:42:48.044Z,103.65
2022-12-15T23:47:50.754Z,108.60
2022-12-15T23:52:53.541Z,85.75
2022-12-15T23:57:58.978Z,85.30
